createdAt,value
2022-12-08T00:02:50.558Z,97.4
2022-12-08T00:05:50.462Z,97.4
2022-12-08T00:08:50.457Z,97.4
2022-12-08T00:11:50.477Z,97.4
2022-12-08T00:14:50.454Z,97.4
2022-12-08T00:17:50.453Z,97.4
2022-12-08T00:20:50.460Z,97.5
2022-12-08T00:23:50.477Z,97.4
2022-12-08T00:26:50.464Z,97.4
2022-12-08T00:29:50.495Z,97.3
2022-12-08T00:32:50.471Z,96.7
2022-12-08T00:35:50.476Z,97.1
2022-12-08T00:38:50.488Z,97.1
2022-12-08T00:41:50.478Z,97
2022-12-08T00:44:50.484Z,97.1
2022-12-08T00:47:50.516Z,97
2022-12-08T00:50:50.490Z,97
2022-12-08T00:53:50.502Z,97
2022-12-08T00:56:50.489Z,97
2022-12-08T00:59:50.493Z,97
2022-12-08T01:02:50.539Z,97
2022-12-08T01:05:50.522Z,96.9
2022-12-08T01:08:50.505Z,96.9
2022-12-08T01:11:50.500Z,96.9
2022-12-08T01:14:50.500Z,96.7
2022-12-08T01:17:50.497Z,96.4
2022-12-08T01:20:50.680Z,96.4
2022-12-08T01:23:50.560Z,96.3
2022-12-08T01:26:50.537Z,96.5
2022-12-08T01:29:50.552Z,96.7
2022-12-08T01:32:50.574Z,96.7
2022-12-08T01:35:50.583Z,96.8
2022-12-08T01:38:50.608Z,96.8
2022-12-08T01:41:50.626Z,96.9
2022-12-08T01:44:50.619Z,97
2022-12-08T01:47:50.684Z,97
2022-12-08T01:50:50.624Z,97.1
2022-12-08T01:53:50.659Z,97.2
2022-12-08T01:56:50.635Z,97.2
2022-12-08T01:59:50.667Z,97.2
2022-12-08T02:02:50.707Z,97.3
2022-12-08T02:05:50.655Z,97.3
2022-12-08T02:08:50.665Z,97.3
2022-12-08T02:11:50.667Z,97.4
2022-12-08T02:14:50.669Z,97.4
2022-12-08T02:17:50.705Z,97.5
2022-12-08T02:20:50.682Z,97.5
2022-12-08T02:23:50.698Z,97.5
2022-12-08T02:26:50.687Z,97.5
2022-12-08T02:29:50.693Z,97.5
2022-12-08T02:32:50.700Z,97.3
2022-12-08T02:35:50.729Z,97.1
2022-12-08T02:38:50.723Z,97
2022-12-08T02:41:50.711Z,97.1
2022-12-08T02:44:50.716Z,96.9
2022-12-08T02:47:50.722Z,96.4
2022-12-08T02:50:50.729Z,96.2
2022-12-08T02:53:50.770Z,96.4
2022-12-08T02:56:50.743Z,96.2
2022-12-08T02:59:50.739Z,96.4
2022-12-08T03:02:50.800Z,96.2
2022-12-08T03:05:50.748Z,96.2
2022-12-08T03:08:50.764Z,96.2
2022-12-08T03:11:50.784Z,96
2022-12-08T03:14:50.765Z,95.4
2022-12-08T03:17:50.766Z,95.5
2022-12-08T03:20:50.775Z,95.7
2022-12-08T03:23:50.793Z,95.7
2022-12-08T03:26:50.784Z,95.6
2022-12-08T03:29:50.815Z,95.6
2022-12-08T03:32:50.796Z,95.5
2022-12-08T03:35:50.808Z,95.2
2022-12-08T03:38:50.812Z,95.1
2022-12-08T03:41:50.810Z,95.3
2022-12-08T03:44:50.814Z,95.2
2022-12-08T03:47:50.843Z,95.2
2022-12-08T03:50:50.835Z,95.3
2022-12-08T03:53:50.839Z,95.1
2022-12-08T03:56:50.841Z,95.1
2022-12-08T03:59:50.841Z,95.2
2022-12-08T04:02:50.900Z,94.9
2022-12-08T04:05:50.877Z,95
2022-12-08T04:08:50.884Z,95
2022-12-08T04:11:50.858Z,95
2022-12-08T04:14:50.860Z,95
2022-12-08T04:17:50.868Z,95
2022-12-08T04:20:50.873Z,95
2022-12-08T04:23:52.134Z,94.9
2022-12-08T04:26:50.879Z,94.6
2022-12-08T04:29:50.895Z,94.6
2022-12-08T04:32:50.896Z,94.7
2022-12-08T04:35:50.906Z,94.7
2022-12-08T04:38:50.914Z,94.9
2022-12-08T04:41:50.937Z,95.2
2022-12-08T04:44:50.919Z,95.3
2022-12-08T04:47:50.926Z,95.4
2022-12-08T04:50:50.935Z,95.4
2022-12-08T04:53:50.937Z,95.2
2022-12-08T04:56:50.929Z,95.1
2022-12-08T04:59:50.966Z,95
2022-12-08T05:02:50.974Z,95
2022-12-08T05:05:50.951Z,95.1
2022-12-08T05:08:50.960Z,95.2
2022-12-08T05:11:50.960Z,95.3
2022-12-08T05:14:50.960Z,95.3
2022-12-08T05:17:50.990Z,95.3
2022-12-08T05:20:50.981Z,95.4
2022-12-08T05:23:50.985Z,95.5
2022-12-08T05:26:50.981Z,95.5
2022-12-08T05:29:50.987Z,95.5
2022-12-08T05:32:50.995Z,95.5
2022-12-08T05:35:51.032Z,95.5
2022-12-08T05:38:51.012Z,95.5
2022-12-08T05:41:50.999Z,95.5
2022-12-08T05:44:51.013Z,95.5
2022-12-08T05:47:51.017Z,95.5
2022-12-08T05:50:51.023Z,95.5
2022-12-08T05:53:51.062Z,95.5
2022-12-08T05:56:51.030Z,95.2
2022-12-08T05:59:51.032Z,95.2
2022-12-08T06:02:51.178Z,95.1
2022-12-08T06:05:51.048Z,94.9
2022-12-08T06:08:51.066Z,94.6
2022-12-08T06:11:51.080Z,94.4
2022-12-08T06:14:51.060Z,94.3
2022-12-08T06:17:51.070Z,94
2022-12-08T06:20:51.070Z,93.9
2022-12-08T06:23:51.087Z,93.7
2022-12-08T06:26:51.078Z,93.8
2022-12-08T06:29:51.107Z,93.9
2022-12-08T06:32:51.099Z,94
2022-12-08T06:35:51.099Z,94
2022-12-08T06:38:51.111Z,94
2022-12-08T06:41:51.101Z,93.9
2022-12-08T06:44:51.111Z,94
2022-12-08T06:47:51.180Z,93.7
2022-12-08T06:50:51.119Z,93.8
2022-12-08T06:53:51.135Z,93.7
2022-12-08T06:56:51.128Z,93.4
2022-12-08T06:59:51.131Z,93.6
2022-12-08T07:02:51.170Z,93.6
2022-12-08T07:05:51.167Z,93.6
2022-12-08T07:08:51.166Z,93.6
2022-12-08T07:11:51.157Z,93.7
2022-12-08T07:14:51.160Z,93.7
2022-12-08T07:17:54.941Z,93.8
2022-12-08T07:20:51.171Z,93.8
2022-12-08T07:23:55.890Z,93.8
2022-12-08T07:26:51.180Z,93.6
2022-12-08T07:29:51.177Z,93.5
2022-12-08T07:32:51.183Z,93.2
2022-12-08T07:35:51.239Z,93.2
2022-12-08T07:38:51.199Z,93.2
2022-12-08T07:41:51.217Z,93.2
2022-12-08T07:44:51.206Z,93.2
2022-12-08T07:47:51.215Z,93.2
2022-12-08T07:50:51.217Z,93.2
2022-12-08T07:53:54.013Z,93.3
2022-12-08T07:56:51.232Z,93.2
2022-12-08T07:59:51.270Z,93.3
2022-12-08T08:02:51.336Z,93.3
2022-12-08T08:05:51.247Z,93.4
2022-12-08T08:08:51.265Z,93.5
2022-12-08T08:12:07.412Z,93.6
2022-12-08T08:14:51.268Z,93.8
2022-12-08T08:17:51.296Z,93.9
2022-12-08T08:20:51.282Z,93.9
2022-12-08T08:23:51.345Z,94
2022-12-08T08:26:51.286Z,94.1
2022-12-08T08:29:51.299Z,94.2
2022-12-08T08:32:51.296Z,94.1
2022-12-08T08:35:51.329Z,94.2
2022-12-08T08:38:51.315Z,94.3
2022-12-08T08:41:51.310Z,94.3
2022-12-08T08:44:51.308Z,94.5
2022-12-08T08:47:51.400Z,94.4
2022-12-08T08:50:51.323Z,94.1
2022-12-08T08:53:51.372Z,94.3
2022-12-08T08:56:51.337Z,94.4
2022-12-08T08:59:51.345Z,94.5
2022-12-08T09:02:51.339Z,94.7
2022-12-08T09:05:51.440Z,94.7
2022-12-08T09:08:51.376Z,94.7
2022-12-08T09:11:51.403Z,94.5
2022-12-08T09:14:51.387Z,94.2
2022-12-08T09:17:51.408Z,94.3
2022-12-08T09:20:51.403Z,94.7
2022-12-08T09:23:51.403Z,95.1
2022-12-08T09:26:51.406Z,95.1
2022-12-08T09:29:51.434Z,95.5
2022-12-08T09:32:51.408Z,95.7
2022-12-08T09:35:51.406Z,95.7
2022-12-08T09:38:51.421Z,95.9
2022-12-08T09:41:51.412Z,96
2022-12-08T09:44:51.418Z,96.1
2022-12-08T09:47:51.443Z,96.1
2022-12-08T09:50:51.420Z,96.1
2022-12-08T09:53:51.446Z,96.1
2022-12-08T09:56:51.420Z,96.1
2022-12-08T09:59:51.423Z,96
2022-12-08T10:02:51.427Z,95.8
2022-12-08T10:05:51.454Z,95.8
2022-12-08T10:08:51.437Z,95.7
2022-12-08T10:11:51.428Z,95.7
2022-12-08T10:14:51.429Z,95.8
2022-12-08T10:17:51.425Z,95.7
2022-12-08T10:20:51.428Z,95.7
2022-12-08T10:23:51.460Z,95.7
2022-12-08T10:26:51.437Z,95.6
2022-12-08T10:29:51.442Z,95.5
2022-12-08T10:32:51.448Z,95.4
2022-12-08T10:35:51.447Z,95.5
2022-12-08T10:38:51.475Z,95.5
2022-12-08T10:41:51.466Z,95.4
2022-12-08T10:44:51.442Z,95.4
2022-12-08T10:47:55.330Z,95.2
2022-12-08T10:50:51.450Z,95.2
2022-12-08T10:53:51.447Z,95
2022-12-08T10:56:51.440Z,94.8
2022-12-08T10:59:51.470Z,94.6
2022-12-08T11:02:51.498Z,94.7
2022-12-08T11:05:51.450Z,94.7
2022-12-08T11:08:51.489Z,94.8
2022-12-08T11:11:51.449Z,94.8
2022-12-08T11:14:51.456Z,94.8
2022-12-08T11:17:56.175Z,94.8
2022-12-08T11:20:51.465Z,94.5
2022-12-08T11:23:51.479Z,94.3
2022-12-08T11:26:51.467Z,94.1
2022-12-08T11:29:51.475Z,94.3
2022-12-08T11:32:51.480Z,94.1
2022-12-08T11:35:51.517Z,93.7
2022-12-08T11:38:51.499Z,93
2022-12-08T11:41:51.497Z,92.7
2022-12-08T11:44:51.491Z,93.1
2022-12-08T11:47:55.724Z,93
2022-12-08T11:50:51.499Z,93
2022-12-08T11:53:51.563Z,92.7
2022-12-08T11:56:51.503Z,92.6
2022-12-08T11:59:51.524Z,92.6
2022-12-08T12:02:51.527Z,92.3
2022-12-08T12:08:51.524Z,92.3
2022-12-08T12:11:51.549Z,92.3
2022-12-08T12:14:51.526Z,92.3
2022-12-08T12:17:51.532Z,92.4
2022-12-08T12:20:51.538Z,92.3
2022-12-08T12:23:51.556Z,92.2
2022-12-08T12:26:51.564Z,92.3
2022-12-08T12:29:55.683Z,92.2
2022-12-08T12:32:51.566Z,92.3
2022-12-08T12:35:51.565Z,92.5
2022-12-08T12:38:51.575Z,92.6
2022-12-08T12:41:51.577Z,92.6
2022-12-08T12:44:51.580Z,92.6
2022-12-08T12:47:56.164Z,92.6
2022-12-08T12:50:51.591Z,92.6
2022-12-08T12:53:51.609Z,92.5
2022-12-08T12:56:51.615Z,92.3
2022-12-08T12:59:55.092Z,92.3
2022-12-08T13:02:51.665Z,92.3
2022-12-08T13:05:51.681Z,92.4
2022-12-08T13:08:51.650Z,92.2
2022-12-08T13:11:51.651Z,92.2
2022-12-08T13:14:51.652Z,92.4
2022-12-08T13:17:51.657Z,92.1
2022-12-08T13:20:51.664Z,92.2
2022-12-08T13:23:51.715Z,92.1
2022-12-08T13:26:51.681Z,91.9
2022-12-08T13:29:51.689Z,91.7
2022-12-08T13:33:20.233Z,91.5
2022-12-08T13:35:51.705Z,91.7
2022-12-08T13:38:51.727Z,91.8
2022-12-08T13:41:51.754Z,91.5
2022-12-08T13:48:20.783Z,91.7
2022-12-08T13:57:05.398Z,92
2022-12-08T13:59:51.776Z,92
2022-12-08T14:02:51.830Z,92.1
2022-12-08T14:06:12.826Z,92.3
2022-12-08T14:09:00.259Z,92.7
2022-12-08T14:11:51.785Z,92.8
2022-12-08T14:15:02.889Z,92.9
2022-12-08T14:17:51.815Z,93
2022-12-08T14:21:19.209Z,93.1
2022-12-08T14:23:51.809Z,93.3
2022-12-08T14:26:51.803Z,93.5
2022-12-08T14:29:51.806Z,93.5
2022-12-08T14:32:51.811Z,93.7
2022-12-08T14:35:51.841Z,93.9
2022-12-08T14:38:51.825Z,94.1
2022-12-08T14:41:51.820Z,94.3
2022-12-08T14:44:51.828Z,94.3
2022-12-08T14:47:51.835Z,94.3
2022-12-08T14:50:51.836Z,94.4
2022-12-08T14:53:51.933Z,94.6
2022-12-08T14:56:51.861Z,94.9
2022-12-08T14:59:51.853Z,95
2022-12-08T15:02:51.854Z,95.1
2022-12-08T15:05:51.851Z,95.3
2022-12-08T15:08:51.869Z,95.4
2022-12-08T15:11:51.891Z,95.7
2022-12-08T15:14:51.867Z,95.6
2022-12-08T15:17:51.869Z,95.3
2022-12-08T15:20:51.877Z,95.2
2022-12-08T15:23:51.880Z,95.2
2022-12-08T15:26:51.873Z,95.4
2022-12-08T15:29:51.896Z,95.6
2022-12-08T15:32:51.875Z,95.8
2022-12-08T15:35:51.876Z,96
2022-12-08T15:38:51.890Z,96.1
2022-12-08T15:41:51.889Z,96.2
2022-12-08T15:44:51.901Z,96.2
2022-12-08T15:47:51.941Z,96.2
2022-12-08T15:50:51.939Z,96
2022-12-08T15:53:51.943Z,95.8
2022-12-08T15:57:17.782Z,95.7
2022-12-08T15:59:51.951Z,95.7
2022-12-08T16:03:18.738Z,95.7
2022-12-08T16:06:20.410Z,95.6
2022-12-08T16:09:05.984Z,95.5
2022-12-08T16:12:05.092Z,95.4
2022-12-08T16:17:51.990Z,95.8
2022-12-08T16:21:16.860Z,96
2022-12-08T16:23:52.037Z,96.3
2022-12-08T16:29:52.003Z,96.8
2022-12-08T16:32:52.018Z,97.1
2022-12-08T16:35:52.025Z,97.3
2022-12-08T16:38:52.035Z,97.4
2022-12-08T16:41:52.055Z,97.6
2022-12-08T16:44:52.039Z,97.5
2022-12-08T16:47:52.045Z,97.2
2022-12-08T16:50:52.046Z,96.9
2022-12-08T16:53:52.069Z,96.6
2022-12-08T16:56:52.062Z,96.5
2022-12-08T16:59:52.089Z,96.3
2022-12-08T17:02:52.064Z,96.2
2022-12-08T17:05:52.078Z,96.1
2022-12-08T17:08:52.084Z,96
2022-12-08T17:11:52.081Z,95.9
2022-12-08T17:14:52.088Z,95.8
2022-12-08T17:17:52.118Z,95.7
2022-12-08T17:20:52.094Z,95.7
2022-12-08T17:23:52.106Z,95.6
2022-12-08T17:26:52.102Z,95.5
2022-12-08T17:29:52.106Z,95.6
2022-12-08T17:32:52.114Z,96.1
2022-12-08T17:35:52.144Z,96.4
2022-12-08T17:38:52.150Z,96.6
2022-12-08T17:41:52.126Z,96.8
2022-12-08T17:44:52.130Z,97
2022-12-08T17:47:52.141Z,97.1
2022-12-08T17:50:52.138Z,97
2022-12-08T17:53:52.181Z,96.5
2022-12-08T17:56:52.154Z,95.9
2022-12-08T17:59:52.250Z,96
2022-12-08T18:02:52.180Z,96.1
2022-12-08T18:05:52.176Z,95.9
2022-12-08T18:08:52.190Z,95.8
2022-12-08T18:11:52.222Z,96
2022-12-08T18:14:52.186Z,95.8
2022-12-08T18:17:52.184Z,95.5
2022-12-08T18:20:52.189Z,95.2
2022-12-08T18:23:52.206Z,95.2
2022-12-08T18:26:52.394Z,95.1
2022-12-08T18:29:52.229Z,95.2
2022-12-08T18:32:57.135Z,95.5
2022-12-08T18:35:52.221Z,95.9
2022-12-08T18:38:52.234Z,96.3
2022-12-08T18:41:52.221Z,96.5
2022-12-08T18:44:52.230Z,96.3
2022-12-08T18:47:52.260Z,95.8
2022-12-08T18:50:52.247Z,95.4
2022-12-08T18:53:52.258Z,95.3
2022-12-08T18:56:52.248Z,95.4
2022-12-08T18:59:52.306Z,95.6
2022-12-08T19:02:52.314Z,96
2022-12-08T19:05:52.296Z,96.4
2022-12-08T19:08:52.275Z,96.8
2022-12-08T19:11:52.271Z,97.1
2022-12-08T19:14:52.281Z,97.4
2022-12-08T19:17:52.289Z,97.6
2022-12-08T19:20:52.287Z,97.8
2022-12-08T19:23:52.324Z,97.9
2022-12-08T19:26:52.296Z,98
2022-12-08T19:29:52.309Z,98.1
2022-12-08T19:32:52.304Z,98
2022-12-08T19:35:52.949Z,97.8
2022-12-08T19:38:52.320Z,97.8
2022-12-08T19:41:52.344Z,97.8
2022-12-08T19:44:52.322Z,97.9
2022-12-08T19:47:52.320Z,98
2022-12-08T19:50:52.326Z,98.1
2022-12-08T19:53:52.334Z,98.2
2022-12-08T19:56:52.327Z,98.3
2022-12-08T19:59:56.281Z,98.4
2022-12-08T20:02:52.399Z,98.3
2022-12-08T20:05:52.341Z,98.2
2022-12-08T20:08:52.463Z,98.1
2022-12-08T20:11:52.383Z,97.9
2022-12-08T20:14:52.366Z,97.6
2022-12-08T20:17:52.393Z,97.2
2022-12-08T20:20:52.371Z,96.9
2022-12-08T20:23:52.414Z,96.6
2022-12-08T20:26:52.374Z,96.4
2022-12-08T20:29:52.414Z,96.4
2022-12-08T20:32:52.383Z,96.3
2022-12-08T20:35:54.765Z,96.3
2022-12-08T20:38:52.417Z,96.2
2022-12-08T20:41:52.433Z,96.2
2022-12-08T20:44:52.406Z,96.2
2022-12-08T20:47:52.411Z,96.2
2022-12-08T20:50:52.674Z,96.2
2022-12-08T20:53:52.578Z,96.2
2022-12-08T20:56:52.593Z,96.2
2022-12-08T20:59:52.534Z,96.3
2022-12-08T21:02:56.420Z,96.4
2022-12-08T21:05:52.501Z,96.6
2022-12-08T21:08:52.657Z,96.7
2022-12-08T21:11:52.514Z,96.7
2022-12-08T21:14:52.459Z,96.5
2022-12-08T21:17:52.679Z,96.5
2022-12-08T21:20:52.789Z,96.5
2022-12-08T21:23:52.627Z,96.5
2022-12-08T21:26:52.472Z,96.4
2022-12-08T21:29:52.571Z,96.2
2022-12-08T21:32:52.722Z,96.3
2022-12-08T21:35:52.610Z,96.3
2022-12-08T21:38:52.544Z,96.4
2022-12-08T21:41:52.551Z,96.6
2022-12-08T21:44:52.532Z,96.7
2022-12-08T21:47:52.656Z,96.7
2022-12-08T21:50:52.506Z,96.7
2022-12-08T21:53:52.606Z,96.6
2022-12-08T21:56:52.633Z,96.5
2022-12-08T21:59:52.518Z,96.5
2022-12-08T22:02:52.981Z,96.6
2022-12-08T22:05:52.733Z,96.6
2022-12-08T22:08:52.674Z,96.6
2022-12-08T22:11:52.718Z,96.5
2022-12-08T22:14:52.553Z,96.5
2022-12-08T22:17:52.889Z,96.5
2022-12-08T22:20:52.652Z,96.6
2022-12-08T22:23:52.684Z,96.6
2022-12-08T22:26:52.564Z,96.6
2022-12-08T22:29:52.568Z,96.7
2022-12-08T22:32:52.868Z,96.8
2022-12-08T22:35:52.574Z,96.9
2022-12-08T22:38:52.584Z,96.8
2022-12-08T22:41:52.644Z,96.8
2022-12-08T22:44:52.589Z,96.9
2022-12-08T22:47:52.821Z,96.9
2022-12-08T22:50:52.645Z,97
2022-12-08T22:53:52.615Z,97
2022-12-08T22:56:52.745Z,96.9
2022-12-08T22:59:52.719Z,96.7
2022-12-08T23:02:52.681Z,96.5
2022-12-08T23:05:52.677Z,96.5
2022-12-08T23:08:52.940Z,96.5
2022-12-08T23:11:52.665Z,96.6
2022-12-08T23:14:52.684Z,96.6
2022-12-08T23:17:52.739Z,96.7
2022-12-08T23:20:52.650Z,96.7
2022-12-08T23:23:52.665Z,96.7
2022-12-08T23:26:52.718Z,96.7
2022-12-08T23:29:52.768Z,96.8
2022-12-08T23:32:52.964Z,96.9
2022-12-08T23:35:52.706Z,97
2022-12-08T23:38:52.809Z,97
2022-12-08T23:41:52.798Z,96.9
2022-12-08T23:44:52.839Z,96.7
2022-12-08T23:47:52.692Z,96.6
2022-12-08T23:50:52.742Z,96.5
2022-12-08T23:53:52.743Z,96.5
2022-12-08T23:56:52.709Z,96.7
2022-12-08T23:59:52.719Z,96.9
